sensor_id;sensor_type;location;lat;lon;timestamp;P1;durP1;ratioP1;P2;durP2;ratioP2
13493;SDS011;6819;50.886;4.332;2022-12-29T00:01:31;2.83;;;1.13;;
13493;SDS011;6819;50.886;4.332;2022-12-29T00:03:57;4.32;;;1.45;;
13493;SDS011;6819;50.886;4.332;2022-12-29T00:06:23;3.03;;;1.38;;
13493;SDS011;6819;50.886;4.332;2022-12-29T00:08:49;2.15;;;1.42;;
13493;SDS011;6819;50.886;4.332;2022-12-29T00:11:20;2.20;;;1.05;;
13493;SDS011;6819;50.886;4.332;2022-12-29T00:13:46;4.85;;;1.40;;
13493;SDS011;6819;50.886;4.332;2022-12-29T00:16:31;4.20;;;1.30;;
13493;SDS011;6819;50.886;4.332;2022-12-29T00:18:57;1.50;;;1.10;;
13493;SDS011;6819;50.886;4.332;2022-12-29T00:21:24;1.30;;;1.00;;
13493;SDS011;6819;50.886;4.332;2022-12-29T00:24:10;3.15;;;1.10;;
13493;SDS011;6819;50.886;4.332;2022-12-29T00:29:47;2.38;;;0.88;;
13493;SDS011;6819;50.886;4.332;2022-12-29T00:32:32;1.98;;;0.73;;
13493;SDS011;6819;50.886;4.332;2022-12-29T00:37:47;3.10;;;0.80;;
13493;SDS011;6819;50.886;4.332;2022-12-29T00:40:32;1.48;;;0.95;;
13493;SDS011;6819;50.886;4.332;2022-12-29T00:43:17;6.03;;;1.00;;
13493;SDS011;6819;50.886;4.332;2022-12-29T00:46:01;6.82;;;1.88;;
13493;SDS011;6819;50.886;4.332;2022-12-29T00:48:27;1.25;;;0.63;;
13493;SDS011;6819;50.886;4.332;2022-12-29T00:51:12;5.20;;;1.17;;
13493;SDS011;6819;50.886;4.332;2022-12-29T00:53:38;2.58;;;0.90;;
13493;SDS011;6819;50.886;4.332;2022-12-29T00:56:04;3.90;;;1.10;;
13493;SDS011;6819;50.886;4.332;2022-12-29T00:58:30;8.50;;;1.00;;
13493;SDS011;6819;50.886;4.332;2022-12-29T01:01:03;2.42;;;0.90;;
13493;SDS011;6819;50.886;4.332;2022-12-29T01:03:29;3.53;;;0.95;;
13493;SDS011;6819;50.886;4.332;2022-12-29T01:05:56;2.95;;;0.80;;
13493;SDS011;6819;50.886;4.332;2022-12-29T01:08:22;4.70;;;1.33;;
13493;SDS011;6819;50.886;4.332;2022-12-29T01:10:57;4.68;;;1.13;;
13493;SDS011;6819;50.886;4.332;2022-12-29T01:13:23;2.95;;;0.90;;
13493;SDS011;6819;50.886;4.332;2022-12-29T01:15:50;2.00;;;1.08;;
13493;SDS011;6819;50.886;4.332;2022-12-29T01:18:16;4.13;;;0.90;;
13493;SDS011;6819;50.886;4.332;2022-12-29T01:20:42;4.03;;;1.20;;
13493;SDS011;6819;50.886;4.332;2022-12-29T01:23:08;3.22;;;1.17;;
13493;SDS011;6819;50.886;4.332;2022-12-29T01:25:34;1.17;;;0.77;;
13493;SDS011;6819;50.886;4.332;2022-12-29T01:28:00;4.50;;;1.52;;
13493;SDS011;6819;50.886;4.332;2022-12-29T01:30:26;1.98;;;0.80;;
13493;SDS011;6819;50.886;4.332;2022-12-29T01:32:52;2.55;;;0.93;;
13493;SDS011;6819;50.886;4.332;2022-12-29T01:35:18;5.38;;;1.15;;
13493;SDS011;6819;50.886;4.332;2022-12-29T01:37:44;5.10;;;1.50;;
13493;SDS011;6819;50.886;4.332;2022-12-29T01:40:10;4.75;;;1.30;;
13493;SDS011;6819;50.886;4.332;2022-12-29T01:42:36;4.47;;;0.93;;
13493;SDS011;6819;50.886;4.332;2022-12-29T01:45:03;4.03;;;1.20;;
13493;SDS011;6819;50.886;4.332;2022-12-29T01:47:44;2.25;;;1.20;;
13493;SDS011;6819;50.886;4.332;2022-12-29T01:52:37;1.63;;;0.90;;
13493;SDS011;6819;50.886;4.332;2022-12-29T01:55:04;3.65;;;1.15;;
13493;SDS011;6819;50.886;4.332;2022-12-29T01:57:32;3.58;;;1.08;;
13493;SDS011;6819;50.886;4.332;2022-12-29T02:00:04;3.38;;;1.35;;
13493;SDS011;6819;50.886;4.332;2022-12-29T02:02:32;2.25;;;0.85;;
13493;SDS011;6819;50.886;4.332;2022-12-29T02:04:58;2.45;;;0.90;;
13493;SDS011;6819;50.886;4.332;2022-12-29T02:07:25;1.98;;;0.90;;
13493;SDS011;6819;50.886;4.332;2022-12-29T02:09:52;2.45;;;1.00;;
13493;SDS011;6819;50.886;4.332;2022-12-29T02:12:19;1.90;;;0.90;;
13493;SDS011;6819;50.886;4.332;2022-12-29T02:14:45;1.85;;;0.77;;
13493;SDS011;6819;50.886;4.332;2022-12-29T02:27:43;1.50;;;0.80;;
13493;SDS011;6819;50.886;4.332;2022-12-29T02:33:30;2.00;;;1.00;;
13493;SDS011;6819;50.886;4.332;2022-12-29T02:40:54;3.15;;;0.80;;
13493;SDS011;6819;50.886;4.332;2022-12-29T02:43:23;4.05;;;0.70;;
13493;SDS011;6819;50.886;4.332;2022-12-29T02:51:04;1.85;;;0.60;;
13493;SDS011;6819;50.886;4.332;2022-12-29T02:53:33;2.67;;;0.52;;
13493;SDS011;6819;50.886;4.332;2022-12-29T02:56:19;2.72;;;0.85;;
13493;SDS011;6819;50.886;4.332;2022-12-29T02:58:45;1.95;;;0.70;;
13493;SDS011;6819;50.886;4.332;2022-12-29T03:03:48;3.10;;;0.80;;
13493;SDS011;6819;50.886;4.332;2022-12-29T03:06:24;3.70;;;1.08;;
13493;SDS011;6819;50.886;4.332;2022-12-29T03:08:55;2.97;;;0.60;;
13493;SDS011;6819;50.886;4.332;2022-12-29T03:11:27;2.85;;;1.08;;
13493;SDS011;6819;50.886;4.332;2022-12-29T03:17:01;3.72;;;1.23;;
13493;SDS011;6819;50.886;4.332;2022-12-29T03:19:33;4.28;;;1.00;;
13493;SDS011;6819;50.886;4.332;2022-12-29T03:22:01;7.18;;;0.90;;
13493;SDS011;6819;50.886;4.332;2022-12-29T03:24:48;4.80;;;0.88;;
13493;SDS011;6819;50.886;4.332;2022-12-29T03:27:17;8.15;;;0.98;;
13493;SDS011;6819;50.886;4.332;2022-12-29T03:29:46;2.47;;;0.77;;
13493;SDS011;6819;50.886;4.332;2022-12-29T03:32:17;3.20;;;0.90;;
13493;SDS011;6819;50.886;4.332;2022-12-29T03:34:44;2.10;;;0.90;;
13493;SDS011;6819;50.886;4.332;2022-12-29T03:37:11;1.55;;;0.70;;
13493;SDS011;6819;50.886;4.332;2022-12-29T03:39:39;1.48;;;0.70;;
13493;SDS011;6819;50.886;4.332;2022-12-29T03:42:05;4.22;;;0.70;;
13493;SDS011;6819;50.886;4.332;2022-12-29T03:44:38;1.48;;;0.70;;
13493;SDS011;6819;50.886;4.332;2022-12-29T03:47:05;2.05;;;0.90;;
13493;SDS011;6819;50.886;4.332;2022-12-29T03:49:31;5.22;;;1.13;;
13493;SDS011;6819;50.886;4.332;2022-12-29T03:51:57;3.28;;;0.80;;
13493;SDS011;6819;50.886;4.332;2022-12-29T03:54:24;2.13;;;0.80;;
13493;SDS011;6819;50.886;4.332;2022-12-29T03:56:50;3.88;;;0.95;;
13493;SDS011;6819;50.886;4.332;2022-12-29T03:59:16;3.97;;;1.00;;
13493;SDS011;6819;50.886;4.332;2022-12-29T04:01:42;1.83;;;0.80;;
13493;SDS011;6819;50.886;4.332;2022-12-29T04:04:08;3.22;;;0.75;;
13493;SDS011;6819;50.886;4.332;2022-12-29T04:06:34;6.25;;;0.90;;
13493;SDS011;6819;50.886;4.332;2022-12-29T04:09:01;4.63;;;1.02;;
13493;SDS011;6819;50.886;4.332;2022-12-29T04:11:27;4.95;;;0.80;;
13493;SDS011;6819;50.886;4.332;2022-12-29T04:13:53;4.80;;;0.80;;
13493;SDS011;6819;50.886;4.332;2022-12-29T04:16:19;3.33;;;0.98;;
13493;SDS011;6819;50.886;4.332;2022-12-29T04:18:45;5.25;;;1.00;;
13493;SDS011;6819;50.886;4.332;2022-12-29T04:21:11;1.85;;;0.70;;
13493;SDS011;6819;50.886;4.332;2022-12-29T04:23:37;1.58;;;0.85;;
13493;SDS011;6819;50.886;4.332;2022-12-29T04:26:04;3.85;;;1.13;;
13493;SDS011;6819;50.886;4.332;2022-12-29T04:28:34;1.45;;;0.68;;
13493;SDS011;6819;50.886;4.332;2022-12-29T04:31:01;3.10;;;1.02;;
13493;SDS011;6819;50.886;4.332;2022-12-29T04:33:27;3.70;;;0.95;;
13493;SDS011;6819;50.886;4.332;2022-12-29T04:35:53;5.45;;;1.10;;
13493;SDS011;6819;50.886;4.332;2022-12-29T04:38:19;1.23;;;0.68;;
13493;SDS011;6819;50.886;4.332;2022-12-29T04:40:46;4.15;;;1.13;;
13493;SDS011;6819;50.886;4.332;2022-12-29T04:43:12;3.80;;;0.65;;
13493;SDS011;6819;50.886;4.332;2022-12-29T04:45:47;2.00;;;0.85;;
13493;SDS011;6819;50.886;4.332;2022-12-29T04:48:14;1.73;;;1.00;;
13493;SDS011;6819;50.886;4.332;2022-12-29T04:50:40;4.38;;;1.00;;
13493;SDS011;6819;50.886;4.332;2022-12-29T04:53:06;4.47;;;0.90;;
13493;SDS011;6819;50.886;4.332;2022-12-29T04:55:32;1.35;;;0.82;;
13493;SDS011;6819;50.886;4.332;2022-12-29T04:57:59;6.78;;;1.45;;
13493;SDS011;6819;50.886;4.332;2022-12-29T05:00:25;6.43;;;1.65;;
13493;SDS011;6819;50.886;4.332;2022-12-29T05:02:51;3.55;;;1.27;;
13493;SDS011;6819;50.886;4.332;2022-12-29T05:05:17;3.42;;;1.40;;
13493;SDS011;6819;50.886;4.332;2022-12-29T05:07:43;5.03;;;1.33;;
13493;SDS011;6819;50.886;4.332;2022-12-29T05:10:10;4.05;;;1.63;;
13493;SDS011;6819;50.886;4.332;2022-12-29T05:12:36;7.80;;;1.63;;
13493;SDS011;6819;50.886;4.332;2022-12-29T05:15:02;9.68;;;1.70;;
13493;SDS011;6819;50.886;4.332;2022-12-29T05:17:29;6.75;;;1.52;;
13493;SDS011;6819;50.886;4.332;2022-12-29T05:19:55;5.93;;;1.42;;
13493;SDS011;6819;50.886;4.332;2022-12-29T05:22:21;5.85;;;1.45;;
13493;SDS011;6819;50.886;4.332;2022-12-29T05:24:47;4.03;;;1.20;;
13493;SDS011;6819;50.886;4.332;2022-12-29T05:27:13;7.85;;;1.50;;
13493;SDS011;6819;50.886;4.332;2022-12-29T05:29:39;3.60;;;1.30;;
13493;SDS011;6819;50.886;4.332;2022-12-29T05:32:05;5.65;;;1.70;;
13493;SDS011;6819;50.886;4.332;2022-12-29T05:34:31;9.88;;;1.65;;
13493;SDS011;6819;50.886;4.332;2022-12-29T05:36:57;3.70;;;1.23;;
13493;SDS011;6819;50.886;4.332;2022-12-29T05:39:23;4.70;;;1.25;;
13493;SDS011;6819;50.886;4.332;2022-12-29T05:41:49;4.70;;;1.65;;
13493;SDS011;6819;50.886;4.332;2022-12-29T05:44:15;3.53;;;1.30;;
13493;SDS011;6819;50.886;4.332;2022-12-29T05:46:41;10.65;;;1.90;;
13493;SDS011;6819;50.886;4.332;2022-12-29T05:49:07;8.45;;;1.50;;
13493;SDS011;6819;50.886;4.332;2022-12-29T05:51:33;8.00;;;1.73;;
13493;SDS011;6819;50.886;4.332;2022-12-29T05:53:59;12.43;;;1.48;;
13493;SDS011;6819;50.886;4.332;2022-12-29T05:56:25;6.25;;;1.15;;
13493;SDS011;6819;50.886;4.332;2022-12-29T05:58:51;4.85;;;1.45;;
13493;SDS011;6819;50.886;4.332;2022-12-29T06:01:17;8.73;;;1.58;;
13493;SDS011;6819;50.886;4.332;2022-12-29T06:03:43;10.48;;;1.48;;
13493;SDS011;6819;50.886;4.332;2022-12-29T06:06:09;5.57;;;1.15;;
13493;SDS011;6819;50.886;4.332;2022-12-29T06:08:35;7.68;;;1.40;;
13493;SDS011;6819;50.886;4.332;2022-12-29T06:11:01;3.22;;;1.45;;
13493;SDS011;6819;50.886;4.332;2022-12-29T06:13:28;9.23;;;1.33;;
13493;SDS011;6819;50.886;4.332;2022-12-29T06:15:54;7.35;;;1.20;;
13493;SDS011;6819;50.886;4.332;2022-12-29T06:18:20;3.65;;;0.95;;
13493;SDS011;6819;50.886;4.332;2022-12-29T06:20:46;8.45;;;1.40;;
13493;SDS011;6819;50.886;4.332;2022-12-29T06:23:12;4.20;;;1.08;;
13493;SDS011;6819;50.886;4.332;2022-12-29T06:25:38;9.10;;;2.30;;
13493;SDS011;6819;50.886;4.332;2022-12-29T06:28:04;9.25;;;1.65;;
13493;SDS011;6819;50.886;4.332;2022-12-29T06:30:31;8.13;;;1.40;;
13493;SDS011;6819;50.886;4.332;2022-12-29T06:32:57;8.80;;;1.50;;
13493;SDS011;6819;50.886;4.332;2022-12-29T06:35:23;8.35;;;1.77;;
13493;SDS011;6819;50.886;4.332;2022-12-29T06:37:50;7.80;;;1.10;;
13493;SDS011;6819;50.886;4.332;2022-12-29T06:40:16;11.38;;;1.83;;
13493;SDS011;6819;50.886;4.332;2022-12-29T06:42:42;10.77;;;1.52;;
13493;SDS011;6819;50.886;4.332;2022-12-29T06:45:08;9.70;;;1.77;;
13493;SDS011;6819;50.886;4.332;2022-12-29T06:47:35;7.25;;;1.85;;
13493;SDS011;6819;50.886;4.332;2022-12-29T06:50:01;10.45;;;2.17;;
13493;SDS011;6819;50.886;4.332;2022-12-29T06:52:27;7.07;;;1.33;;
13493;SDS011;6819;50.886;4.332;2022-12-29T06:54:53;7.18;;;1.98;;
13493;SDS011;6819;50.886;4.332;2022-12-29T06:57:19;6.70;;;1.40;;
13493;SDS011;6819;50.886;4.332;2022-12-29T06:59:46;3.00;;;1.08;;
13493;SDS011;6819;50.886;4.332;2022-12-29T07:02:12;5.00;;;1.20;;
13493;SDS011;6819;50.886;4.332;2022-12-29T07:04:44;6.82;;;1.30;;
13493;SDS011;6819;50.886;4.332;2022-12-29T07:07:10;5.68;;;1.05;;
13493;SDS011;6819;50.886;4.332;2022-12-29T07:09:36;10.65;;;2.17;;
13493;SDS011;6819;50.886;4.332;2022-12-29T07:12:02;7.75;;;1.25;;
13493;SDS011;6819;50.886;4.332;2022-12-29T07:14:28;5.47;;;1.48;;
13493;SDS011;6819;50.886;4.332;2022-12-29T07:16:54;9.35;;;1.10;;
13493;SDS011;6819;50.886;4.332;2022-12-29T07:19:21;5.38;;;1.13;;
13493;SDS011;6819;50.886;4.332;2022-12-29T07:21:47;9.30;;;1.65;;
13493;SDS011;6819;50.886;4.332;2022-12-29T07:24:13;12.48;;;2.00;;
13493;SDS011;6819;50.886;4.332;2022-12-29T07:26:39;10.15;;;1.95;;
13493;SDS011;6819;50.886;4.332;2022-12-29T07:29:06;7.38;;;1.63;;
13493;SDS011;6819;50.886;4.332;2022-12-29T07:31:32;7.78;;;1.63;;
13493;SDS011;6819;50.886;4.332;2022-12-29T07:33:58;8.30;;;1.48;;
13493;SDS011;6819;50.886;4.332;2022-12-29T07:36:24;5.40;;;1.02;;
13493;SDS011;6819;50.886;4.332;2022-12-29T07:38:50;8.20;;;1.10;;
13493;SDS011;6819;50.886;4.332;2022-12-29T07:41:16;5.63;;;1.70;;
13493;SDS011;6819;50.886;4.332;2022-12-29T07:43:46;6.35;;;1.42;;
13493;SDS011;6819;50.886;4.332;2022-12-29T07:46:12;14.50;;;1.77;;
13493;SDS011;6819;50.886;4.332;2022-12-29T07:48:38;10.48;;;1.40;;
13493;SDS011;6819;50.886;4.332;2022-12-29T07:51:04;13.70;;;1.70;;
13493;SDS011;6819;50.886;4.332;2022-12-29T07:53:31;12.07;;;2.20;;
13493;SDS011;6819;50.886;4.332;2022-12-29T07:55:57;4.47;;;1.42;;
13493;SDS011;6819;50.886;4.332;2022-12-29T07:58:23;11.00;;;1.52;;
13493;SDS011;6819;50.886;4.332;2022-12-29T08:00:53;10.68;;;1.75;;
13493;SDS011;6819;50.886;4.332;2022-12-29T08:03:19;8.45;;;2.42;;
13493;SDS011;6819;50.886;4.332;2022-12-29T08:05:45;13.70;;;2.72;;
13493;SDS011;6819;50.886;4.332;2022-12-29T08:08:11;8.30;;;1.55;;
13493;SDS011;6819;50.886;4.332;2022-12-29T08:10:37;9.00;;;1.70;;
13493;SDS011;6819;50.886;4.332;2022-12-29T08:13:03;6.90;;;1.40;;
13493;SDS011;6819;50.886;4.332;2022-12-29T08:15:29;7.93;;;1.38;;
13493;SDS011;6819;50.886;4.332;2022-12-29T08:17:55;11.73;;;2.20;;
13493;SDS011;6819;50.886;4.332;2022-12-29T08:20:21;6.28;;;1.52;;
13493;SDS011;6819;50.886;4.332;2022-12-29T08:22:47;9.63;;;1.60;;
13493;SDS011;6819;50.886;4.332;2022-12-29T08:25:13;6.95;;;1.70;;
13493;SDS011;6819;50.886;4.332;2022-12-29T08:27:40;5.30;;;1.20;;
13493;SDS011;6819;50.886;4.332;2022-12-29T08:30:06;7.95;;;1.63;;
13493;SDS011;6819;50.886;4.332;2022-12-29T08:32:32;6.65;;;1.98;;
13493;SDS011;6819;50.886;4.332;2022-12-29T08:34:58;10.40;;;1.38;;
13493;SDS011;6819;50.886;4.332;2022-12-29T08:37:25;3.75;;;1.25;;
13493;SDS011;6819;50.886;4.332;2022-12-29T08:39:51;11.93;;;1.83;;
13493;SDS011;6819;50.886;4.332;2022-12-29T08:42:17;6.70;;;1.70;;
13493;SDS011;6819;50.886;4.332;2022-12-29T08:44:43;8.88;;;1.48;;
13493;SDS011;6819;50.886;4.332;2022-12-29T08:47:10;9.82;;;1.95;;
13493;SDS011;6819;50.886;4.332;2022-12-29T08:49:36;12.18;;;1.55;;
13493;SDS011;6819;50.886;4.332;2022-12-29T08:52:02;4.32;;;1.38;;
13493;SDS011;6819;50.886;4.332;2022-12-29T08:54:28;8.45;;;1.67;;
13493;SDS011;6819;50.886;4.332;2022-12-29T08:56:54;12.68;;;1.50;;
13493;SDS011;6819;50.886;4.332;2022-12-29T08:59:20;8.73;;;1.85;;
13493;SDS011;6819;50.886;4.332;2022-12-29T09:01:46;8.32;;;1.80;;
13493;SDS011;6819;50.886;4.332;2022-12-29T09:04:12;11.13;;;1.65;;
13493;SDS011;6819;50.886;4.332;2022-12-29T09:06:38;11.68;;;2.03;;
13493;SDS011;6819;50.886;4.332;2022-12-29T09:09:04;6.38;;;1.70;;
13493;SDS011;6819;50.886;4.332;2022-12-29T09:11:30;6.88;;;1.50;;
13493;SDS011;6819;50.886;4.332;2022-12-29T09:13:56;10.57;;;2.28;;
13493;SDS011;6819;50.886;4.332;2022-12-29T09:16:23;12.20;;;1.98;;
13493;SDS011;6819;50.886;4.332;2022-12-29T09:18:49;7.75;;;1.33;;
13493;SDS011;6819;50.886;4.332;2022-12-29T09:21:15;10.00;;;1.88;;
13493;SDS011;6819;50.886;4.332;2022-12-29T09:23:41;6.57;;;2.03;;
13493;SDS011;6819;50.886;4.332;2022-12-29T09:26:08;8.48;;;2.03;;
13493;SDS011;6819;50.886;4.332;2022-12-29T09:28:35;7.88;;;1.42;;
13493;SDS011;6819;50.886;4.332;2022-12-29T09:31:01;6.85;;;1.38;;
13493;SDS011;6819;50.886;4.332;2022-12-29T09:33:28;12.38;;;1.95;;
13493;SDS011;6819;50.886;4.332;2022-12-29T09:35:55;11.27;;;2.78;;
13493;SDS011;6819;50.886;4.332;2022-12-29T09:38:22;6.30;;;1.38;;
13493;SDS011;6819;50.886;4.332;2022-12-29T09:40:53;12.02;;;2.53;;
13493;SDS011;6819;50.886;4.332;2022-12-29T09:48:35;9.27;;;1.85;;
13493;SDS011;6819;50.886;4.332;2022-12-29T09:51:03;9.90;;;1.83;;
13493;SDS011;6819;50.886;4.332;2022-12-29T09:53:34;7.35;;;1.92;;
13493;SDS011;6819;50.886;4.332;2022-12-29T09:56:03;10.55;;;2.10;;
13493;SDS011;6819;50.886;4.332;2022-12-29T10:01:06;11.50;;;2.33;;
13493;SDS011;6819;50.886;4.332;2022-12-29T10:03:52;19.42;;;1.77;;
13493;SDS011;6819;50.886;4.332;2022-12-29T10:06:22;9.25;;;1.60;;
13493;SDS011;6819;50.886;4.332;2022-12-29T10:08:53;9.27;;;1.63;;
13493;SDS011;6819;50.886;4.332;2022-12-29T10:16:51;9.73;;;2.20;;
13493;SDS011;6819;50.886;4.332;2022-12-29T10:24:28;8.18;;;1.67;;
13493;SDS011;6819;50.886;4.332;2022-12-29T10:26:54;7.53;;;2.03;;
13493;SDS011;6819;50.886;4.332;2022-12-29T10:29:22;7.18;;;1.90;;
13493;SDS011;6819;50.886;4.332;2022-12-29T10:31:59;9.43;;;2.47;;
13493;SDS011;6819;50.886;4.332;2022-12-29T10:34:45;9.45;;;1.45;;
13493;SDS011;6819;50.886;4.332;2022-12-29T10:39:54;12.90;;;2.28;;
13493;SDS011;6819;50.886;4.332;2022-12-29T10:44:49;11.45;;;1.80;;
13493;SDS011;6819;50.886;4.332;2022-12-29T10:47:19;7.82;;;2.00;;
13493;SDS011;6819;50.886;4.332;2022-12-29T10:49:47;7.35;;;2.00;;
13493;SDS011;6819;50.886;4.332;2022-12-29T10:52:14;6.60;;;1.40;;
13493;SDS011;6819;50.886;4.332;2022-12-29T10:57:17;10.73;;;2.40;;
13493;SDS011;6819;50.886;4.332;2022-12-29T10:59:45;18.00;;;2.10;;
13493;SDS011;6819;50.886;4.332;2022-12-29T11:07:13;7.80;;;1.48;;
13493;SDS011;6819;50.886;4.332;2022-12-29T11:09:42;14.80;;;2.50;;
13493;SDS011;6819;50.886;4.332;2022-12-29T11:12:19;13.52;;;2.40;;
13493;SDS011;6819;50.886;4.332;2022-12-29T11:14:45;11.02;;;1.70;;
13493;SDS011;6819;50.886;4.332;2022-12-29T11:17:16;9.63;;;1.90;;
13493;SDS011;6819;50.886;4.332;2022-12-29T11:19:43;8.32;;;1.88;;
13493;SDS011;6819;50.886;4.332;2022-12-29T11:22:22;7.63;;;1.60;;
13493;SDS011;6819;50.886;4.332;2022-12-29T11:24:50;15.45;;;2.30;;
13493;SDS011;6819;50.886;4.332;2022-12-29T11:27:20;9.57;;;1.90;;
13493;SDS011;6819;50.886;4.332;2022-12-29T11:29:47;11.95;;;2.47;;
13493;SDS011;6819;50.886;4.332;2022-12-29T11:34:43;8.50;;;1.90;;
13493;SDS011;6819;50.886;4.332;2022-12-29T11:37:13;11.82;;;2.05;;
13493;SDS011;6819;50.886;4.332;2022-12-29T11:42:13;14.50;;;2.00;;
13493;SDS011;6819;50.886;4.332;2022-12-29T11:44:42;6.95;;;1.88;;
13493;SDS011;6819;50.886;4.332;2022-12-29T11:47:09;10.27;;;2.22;;
13493;SDS011;6819;50.886;4.332;2022-12-29T11:49:38;10.52;;;1.98;;
13493;SDS011;6819;50.886;4.332;2022-12-29T11:52:04;8.73;;;2.75;;
13493;SDS011;6819;50.886;4.332;2022-12-29T11:54:34;10.20;;;2.28;;
13493;SDS011;6819;50.886;4.332;2022-12-29T11:57:08;5.45;;;1.88;;
13493;SDS011;6819;50.886;4.332;2022-12-29T11:59:37;9.60;;;2.58;;
13493;SDS011;6819;50.886;4.332;2022-12-29T12:04:44;8.38;;;1.75;;
13493;SDS011;6819;50.886;4.332;2022-12-29T12:07:12;9.63;;;1.63;;
13493;SDS011;6819;50.886;4.332;2022-12-29T12:12:15;11.85;;;1.70;;
13493;SDS011;6819;50.886;4.332;2022-12-29T12:14:45;9.15;;;1.48;;
13493;SDS011;6819;50.886;4.332;2022-12-29T12:17:14;8.80;;;1.75;;
13493;SDS011;6819;50.886;4.332;2022-12-29T12:19:59;10.82;;;2.38;;
13493;SDS011;6819;50.886;4.332;2022-12-29T12:24:57;9.10;;;2.00;;
13493;SDS011;6819;50.886;4.332;2022-12-29T12:27:26;11.90;;;2.00;;
13493;SDS011;6819;50.886;4.332;2022-12-29T12:30:07;12.73;;;2.00;;
13493;SDS011;6819;50.886;4.332;2022-12-29T12:35:15;7.75;;;1.60;;
13493;SDS011;6819;50.886;4.332;2022-12-29T12:37:51;8.15;;;2.08;;
13493;SDS011;6819;50.886;4.332;2022-12-29T12:40:34;7.78;;;2.38;;
13493;SDS011;6819;50.886;4.332;2022-12-29T12:53:44;7.75;;;1.40;;
13493;SDS011;6819;50.886;4.332;2022-12-29T12:58:32;8.85;;;1.80;;
13493;SDS011;6819;50.886;4.332;2022-12-29T13:01:24;9.05;;;2.08;;
13493;SDS011;6819;50.886;4.332;2022-12-29T13:11:21;9.55;;;2.05;;
13493;SDS011;6819;50.886;4.332;2022-12-29T13:18:57;12.90;;;1.85;;
13493;SDS011;6819;50.886;4.332;2022-12-29T13:26:48;6.68;;;1.85;;
13493;SDS011;6819;50.886;4.332;2022-12-29T13:37:04;10.20;;;2.05;;
13493;SDS011;6819;50.886;4.332;2022-12-29T13:39:37;14.95;;;2.38;;
13493;SDS011;6819;50.886;4.332;2022-12-29T13:42:05;11.55;;;1.80;;
13493;SDS011;6819;50.886;4.332;2022-12-29T13:44:35;8.20;;;1.88;;
13493;SDS011;6819;50.886;4.332;2022-12-29T13:47:06;10.65;;;1.90;;
13493;SDS011;6819;50.886;4.332;2022-12-29T13:49:37;6.97;;;1.58;;
13493;SDS011;6819;50.886;4.332;2022-12-29T13:52:08;6.88;;;1.95;;
13493;SDS011;6819;50.886;4.332;2022-12-29T13:54:43;9.88;;;2.42;;
13493;SDS011;6819;50.886;4.332;2022-12-29T14:02:38;8.57;;;2.05;;
13493;SDS011;6819;50.886;4.332;2022-12-29T14:07:43;10.00;;;2.53;;
13493;SDS011;6819;50.886;4.332;2022-12-29T14:13:04;10.50;;;1.98;;
13493;SDS011;6819;50.886;4.332;2022-12-29T14:15:31;9.90;;;2.03;;
13493;SDS011;6819;50.886;4.332;2022-12-29T14:20:27;15.55;;;2.60;;
13493;SDS011;6819;50.886;4.332;2022-12-29T14:23:00;9.27;;;2.33;;
13493;SDS011;6819;50.886;4.332;2022-12-29T14:28:15;8.63;;;1.77;;
13493;SDS011;6819;50.886;4.332;2022-12-29T14:30:51;7.57;;;2.30;;
13493;SDS011;6819;50.886;4.332;2022-12-29T14:33:18;14.05;;;1.50;;
13493;SDS011;6819;50.886;4.332;2022-12-29T14:35:46;2.38;;;1.00;;
13493;SDS011;6819;50.886;4.332;2022-12-29T14:38:18;3.33;;;0.95;;
13493;SDS011;6819;50.886;4.332;2022-12-29T14:40:45;5.78;;;1.48;;
13493;SDS011;6819;50.886;4.332;2022-12-29T14:43:12;6.20;;;1.00;;
13493;SDS011;6819;50.886;4.332;2022-12-29T14:45:40;4.22;;;1.00;;
13493;SDS011;6819;50.886;4.332;2022-12-29T14:50:52;2.75;;;1.08;;
13493;SDS011;6819;50.886;4.332;2022-12-29T14:56:03;7.32;;;1.13;;
13493;SDS011;6819;50.886;4.332;2022-12-29T14:58:35;8.90;;;1.30;;
13493;SDS011;6819;50.886;4.332;2022-12-29T15:01:04;6.40;;;1.30;;
13493;SDS011;6819;50.886;4.332;2022-12-29T15:03:45;5.95;;;1.40;;
13493;SDS011;6819;50.886;4.332;2022-12-29T15:06:12;4.40;;;1.25;;
13493;SDS011;6819;50.886;4.332;2022-12-29T15:08:50;3.60;;;1.30;;
13493;SDS011;6819;50.886;4.332;2022-12-29T15:11:18;6.18;;;1.15;;
13493;SDS011;6819;50.886;4.332;2022-12-29T15:13:45;4.38;;;1.08;;
13493;SDS011;6819;50.886;4.332;2022-12-29T15:16:29;9.05;;;1.23;;
13493;SDS011;6819;50.886;4.332;2022-12-29T15:18:56;5.53;;;1.30;;
13493;SDS011;6819;50.886;4.332;2022-12-29T15:21:26;4.68;;;2.22;;
13493;SDS011;6819;50.886;4.332;2022-12-29T15:23:52;2.67;;;0.95;;
13493;SDS011;6819;50.886;4.332;2022-12-29T15:26:19;9.20;;;1.30;;
13493;SDS011;6819;50.886;4.332;2022-12-29T15:28:48;4.63;;;1.13;;
13493;SDS011;6819;50.886;4.332;2022-12-29T15:31:15;7.75;;;1.65;;
13493;SDS011;6819;50.886;4.332;2022-12-29T15:33:44;10.70;;;1.45;;
13493;SDS011;6819;50.886;4.332;2022-12-29T15:36:13;6.95;;;1.60;;
13493;SDS011;6819;50.886;4.332;2022-12-29T15:38:39;7.35;;;1.30;;
13493;SDS011;6819;50.886;4.332;2022-12-29T15:41:06;10.60;;;1.73;;
13493;SDS011;6819;50.886;4.332;2022-12-29T15:46:11;12.43;;;2.50;;
13493;SDS011;6819;50.886;4.332;2022-12-29T15:48:38;7.50;;;1.67;;
13493;SDS011;6819;50.886;4.332;2022-12-29T15:51:10;5.40;;;1.20;;
13493;SDS011;6819;50.886;4.332;2022-12-29T15:53:40;11.15;;;1.75;;
13493;SDS011;6819;50.886;4.332;2022-12-29T15:56:06;6.60;;;1.70;;
13493;SDS011;6819;50.886;4.332;2022-12-29T15:58:39;7.40;;;1.85;;
13493;SDS011;6819;50.886;4.332;2022-12-29T16:01:15;7.43;;;1.63;;
13493;SDS011;6819;50.886;4.332;2022-12-29T16:03:42;8.13;;;1.63;;
13493;SDS011;6819;50.886;4.332;2022-12-29T16:08:55;9.85;;;1.88;;
13493;SDS011;6819;50.886;4.332;2022-12-29T16:13:48;8.82;;;1.90;;
13493;SDS011;6819;50.886;4.332;2022-12-29T16:16:18;6.00;;;1.90;;
13493;SDS011;6819;50.886;4.332;2022-12-29T16:18:45;8.38;;;1.80;;
13493;SDS011;6819;50.886;4.332;2022-12-29T16:23:50;8.85;;;2.08;;
13493;SDS011;6819;50.886;4.332;2022-12-29T16:26:17;8.07;;;2.83;;
13493;SDS011;6819;50.886;4.332;2022-12-29T16:28:43;9.48;;;2.35;;
13493;SDS011;6819;50.886;4.332;2022-12-29T16:33:48;11.95;;;2.60;;
13493;SDS011;6819;50.886;4.332;2022-12-29T16:36:21;11.45;;;2.45;;
13493;SDS011;6819;50.886;4.332;2022-12-29T16:38:48;5.78;;;2.35;;
13493;SDS011;6819;50.886;4.332;2022-12-29T16:41:28;17.40;;;2.60;;
13493;SDS011;6819;50.886;4.332;2022-12-29T16:46:41;13.45;;;2.85;;
13493;SDS011;6819;50.886;4.332;2022-12-29T16:49:08;12.60;;;2.72;;
13493;SDS011;6819;50.886;4.332;2022-12-29T16:51:39;13.50;;;3.35;;
13493;SDS011;6819;50.886;4.332;2022-12-29T16:54:05;13.15;;;3.55;;
13493;SDS011;6819;50.886;4.332;2022-12-29T16:56:33;14.80;;;2.50;;
13493;SDS011;6819;50.886;4.332;2022-12-29T16:59:06;12.00;;;2.83;;
13493;SDS011;6819;50.886;4.332;2022-12-29T17:01:36;16.77;;;2.78;;
13493;SDS011;6819;50.886;4.332;2022-12-29T17:04:06;14.23;;;2.90;;
13493;SDS011;6819;50.886;4.332;2022-12-29T17:06:33;14.45;;;2.63;;
13493;SDS011;6819;50.886;4.332;2022-12-29T17:08:59;19.50;;;3.20;;
13493;SDS011;6819;50.886;4.332;2022-12-29T17:11:27;11.20;;;2.70;;
13493;SDS011;6819;50.886;4.332;2022-12-29T17:16:57;8.95;;;2.95;;
13493;SDS011;6819;50.886;4.332;2022-12-29T17:19:28;15.55;;;2.95;;
13493;SDS011;6819;50.886;4.332;2022-12-29T17:21:55;15.38;;;2.85;;
13493;SDS011;6819;50.886;4.332;2022-12-29T17:24:21;19.88;;;3.65;;
13493;SDS011;6819;50.886;4.332;2022-12-29T17:26:51;13.77;;;2.45;;
13493;SDS011;6819;50.886;4.332;2022-12-29T17:29:19;10.65;;;2.33;;
13493;SDS011;6819;50.886;4.332;2022-12-29T17:31:46;12.88;;;3.67;;
13493;SDS011;6819;50.886;4.332;2022-12-29T17:34:12;14.77;;;2.53;;
13493;SDS011;6819;50.886;4.332;2022-12-29T17:36:38;13.07;;;2.55;;
13493;SDS011;6819;50.886;4.332;2022-12-29T17:39:05;22.75;;;3.75;;
13493;SDS011;6819;50.886;4.332;2022-12-29T17:41:31;13.63;;;2.25;;
13493;SDS011;6819;50.886;4.332;2022-12-29T17:43:59;18.58;;;3.15;;
13493;SDS011;6819;50.886;4.332;2022-12-29T17:46:26;18.23;;;3.70;;
13493;SDS011;6819;50.886;4.332;2022-12-29T17:48:52;12.38;;;2.38;;